Time;durP1;ratioP1;P1;durP2;ratioP2;P2;SDS_P1;SDS_P2;PMS_P1;PMS_P2;Temp;Humidity;BMP_temperature;BMP_pressure;BME280_temperature;BME280_humidity;BME280_pressure;Samples;Min_cycle;Max_cycle;Signal;HPM_P1;HPM_P2
2024/03/18 00:02:24;;;;;;;16.48;13.02;;;11.20;98.10;;;;;;4994685;28;20034;-73
2024/03/18 00:04:50;;;;;;;15.75;13.10;;;11.20;98.10;;;;;;4997631;28;20112;-73
2024/03/18 00:07:16;;;;;;;18.30;13.63;;;11.10;98.10;;;;;;4992085;28;20407;-74
2024/03/18 00:09:42;;;;;;;16.10;13.18;;;11.10;98.10;;;;;;4994598;28;20037;-76
2024/03/18 00:12:08;;;;;;;18.67;14.00;;;11.10;98.10;;;;;;4995253;28;20037;-73
2024/03/18 00:14:33;;;;;;;18.90;14.18;;;11.10;98.10;;;;;;4994374;28;20490;-74
2024/03/18 00:16:59;;;;;;;17.70;14.35;;;11.10;98.10;;;;;;4993186;28;20135;-73
2024/03/18 00:19:25;;;;;;;23.20;16.30;;;11.10;98.10;;;;;;5001051;28;20076;-76
2024/03/18 00:21:51;;;;;;;19.65;16.25;;;11.10;98.10;;;;;;4988156;28;20046;-73
2024/03/18 00:24:18;;;;;;;22.92;16.58;;;11.10;98.10;;;;;;4992296;28;20034;-74
2024/03/18 00:26:43;;;;;;;26.35;19.33;;;11.10;98.20;;;;;;4994941;28;20460;-75
2024/03/18 00:29:09;;;;;;;25.77;20.20;;;11.00;98.10;;;;;;4995466;28;20113;-76
2024/03/18 00:31:35;;;;;;;22.90;18.10;;;11.00;98.10;;;;;;4994684;28;20115;-72
2024/03/18 00:34:01;;;;;;;22.48;17.58;;;11.00;98.20;;;;;;4995886;28;20036;-74
2024/03/18 00:36:26;;;;;;;22.67;16.70;;;10.90;98.20;;;;;;5001592;28;20038;-73
2024/03/18 00:38:52;;;;;;;20.90;15.65;;;10.90;98.20;;;;;;5004179;28;20077;-76
2024/03/18 00:44:04;;;;;;;20.27;14.52;;;10.90;98.20;;;;;;4997778;28;20108;-76
2024/03/18 00:46:30;;;;;;;18.48;13.90;;;10.90;98.20;;;;;;4997278;28;20659;-76
2024/03/18 00:48:56;;;;;;;17.67;13.07;;;10.90;98.20;;;;;;4994359;28;20033;-72
2024/03/18 00:51:21;;;;;;;18.60;12.38;;;10.80;98.20;;;;;;4999377;28;20621;-72
2024/03/18 00:53:47;;;;;;;18.77;13.35;;;10.80;98.20;;;;;;4999913;28;20825;-73
2024/03/18 00:56:13;;;;;;;17.02;13.10;;;10.80;98.10;;;;;;4998069;28;20061;-76
2024/03/18 00:58:39;;;;;;;15.00;12.02;;;10.80;98.10;;;;;;4998994;28;20049;-75
2024/03/18 01:01:06;;;;;;;18.05;12.88;;;10.80;98.10;;;;;;4997395;28;20042;-73
2024/03/18 01:03:33;;;;;;;18.80;12.90;;;10.80;98.10;;;;;;5004134;28;20044;-75
2024/03/18 01:05:59;;;;;;;17.65;13.40;;;10.80;98.10;;;;;;5000675;28;20049;-74
2024/03/18 01:08:25;;;;;;;18.73;13.18;;;10.80;98.10;;;;;;5005951;28;20018;-73
2024/03/18 01:10:50;;;;;;;17.50;13.48;;;10.70;98.20;;;;;;5011316;28;20325;-76
2024/03/18 01:13:16;;;;;;;16.60;12.50;;;10.70;98.10;;;;;;5004042;28;20106;-73
2024/03/18 01:15:45;;;;;;;18.52;13.93;;;10.70;98.10;;;;;;5002052;28;20418;-73
2024/03/18 01:18:11;;;;;;;17.63;13.65;;;10.70;98.20;;;;;;5000266;28;20030;-74
2024/03/18 01:20:36;;;;;;;18.40;14.00;;;10.70;98.20;;;;;;5005819;28;20076;-73
2024/03/18 01:23:03;;;;;;;18.77;14.90;;;10.70;98.20;;;;;;5005527;28;20859;-74
2024/03/18 01:25:29;;;;;;;17.77;14.32;;;10.60;98.10;;;;;;5003920;28;20025;-76
2024/03/18 01:27:55;;;;;;;18.70;14.73;;;10.60;98.20;;;;;;4993489;28;20735;-74
2024/03/18 01:30:21;;;;;;;19.10;13.73;;;10.60;98.20;;;;;;4996886;28;20166;-77
2024/03/18 01:32:47;;;;;;;17.60;14.98;;;10.60;98.20;;;;;;4999157;28;20130;-75
2024/03/18 01:35:12;;;;;;;20.30;15.18;;;10.60;98.20;;;;;;5003153;28;20119;-73
2024/03/18 01:37:38;;;;;;;20.52;15.48;;;10.60;98.20;;;;;;5000159;28;20053;-75
2024/03/18 01:40:10;;;;;;;19.05;15.35;;;10.60;98.30;;;;;;5003242;28;20704;-74
2024/03/18 01:42:36;;;;;;;21.90;17.00;;;10.70;98.30;;;;;;5000362;28;20081;-72
2024/03/18 01:45:03;;;;;;;39.28;26.48;;;10.70;98.30;;;;;;4999292;28;20146;-77
2024/03/18 01:47:29;;;;;;;92.63;55.88;;;10.60;98.30;;;;;;5003062;28;20041;-74
2024/03/18 01:49:55;;;;;;;33.97;25.33;;;10.60;98.30;;;;;;5003368;28;20060;-72
2024/03/18 01:52:22;;;;;;;21.25;17.13;;;10.60;98.30;;;;;;4998714;28;20120;-75
2024/03/18 01:54:48;;;;;;;21.70;16.70;;;10.60;98.30;;;;;;4997281;28;20048;-76
2024/03/18 01:57:14;;;;;;;21.58;15.48;;;10.60;98.30;;;;;;4998615;28;20120;-74
2024/03/18 01:59:40;;;;;;;24.92;15.77;;;10.60;98.30;;;;;;5002196;28;20022;-77
2024/03/18 02:02:06;;;;;;;22.77;16.67;;;10.60;98.30;;;;;;5005063;28;20052;-75
2024/03/18 02:04:32;;;;;;;20.25;16.67;;;10.60;98.30;;;;;;4999709;28;20038;-77
2024/03/18 02:06:58;;;;;;;23.67;16.42;;;10.50;98.40;;;;;;4993350;28;20057;-76
2024/03/18 02:09:27;;;;;;;20.52;16.33;;;10.60;98.40;;;;;;5000414;28;20103;-73
2024/03/18 02:11:57;;;;;;;22.42;16.83;;;10.60;98.40;;;;;;4999708;28;20060;-76
2024/03/18 02:14:23;;;;;;;20.58;16.13;;;10.60;98.40;;;;;;4997494;28;20030;-76
2024/03/18 02:16:49;;;;;;;19.50;15.38;;;10.50;98.40;;;;;;5003716;28;20789;-72
2024/03/18 02:19:14;;;;;;;20.55;15.85;;;10.50;98.40;;;;;;4997934;28;20037;-78
2024/03/18 02:21:40;;;;;;;21.75;15.70;;;10.50;98.40;;;;;;5006127;28;20034;-77
2024/03/18 02:24:06;;;;;;;19.00;16.02;;;10.50;98.40;;;;;;4996285;28;20143;-76
2024/03/18 02:26:35;;;;;;;19.83;16.52;;;10.50;98.40;;;;;;4994806;28;20141;-76
2024/03/18 02:29:01;;;;;;;19.20;15.70;;;10.50;98.40;;;;;;4997767;28;20032;-75
2024/03/18 02:31:27;;;;;;;19.13;14.68;;;10.50;98.40;;;;;;5000587;28;20088;-74
2024/03/18 02:33:53;;;;;;;22.52;17.38;;;10.40;98.40;;;;;;4999927;28;20117;-76
2024/03/18 02:36:18;;;;;;;22.65;16.08;;;10.40;98.40;;;;;;4996111;28;20054;-75
2024/03/18 02:38:44;;;;;;;22.02;16.85;;;10.40;98.40;;;;;;4996667;28;20543;-76
2024/03/18 02:41:11;;;;;;;22.27;17.48;;;10.40;98.50;;;;;;4997702;28;20046;-75
2024/03/18 02:43:37;;;;;;;20.15;16.42;;;10.40;98.50;;;;;;4999273;28;20029;-78
2024/03/18 02:46:04;;;;;;;21.25;16.88;;;10.30;98.50;;;;;;4994664;28;20312;-78
2024/03/18 02:48:30;;;;;;;21.58;17.30;;;10.40;98.50;;;;;;5000708;28;20033;-77
2024/03/18 02:50:56;;;;;;;22.10;16.75;;;10.40;98.60;;;;;;4997824;28;20643;-74
2024/03/18 02:53:22;;;;;;;22.52;18.10;;;10.40;98.50;;;;;;5001012;28;20060;-77
2024/03/18 02:55:48;;;;;;;20.40;16.17;;;10.30;98.50;;;;;;4999464;28;20042;-78
2024/03/18 02:58:13;;;;;;;22.08;16.95;;;10.30;98.60;;;;;;4997224;28;20441;-74
2024/03/18 03:00:39;;;;;;;23.35;18.45;;;10.30;98.60;;;;;;5000653;28;20026;-78
2024/03/18 03:03:05;;;;;;;24.45;18.88;;;10.30;98.60;;;;;;5002843;28;20136;-73
2024/03/18 03:05:30;;;;;;;23.95;18.80;;;10.30;98.60;;;;;;4995450;28;20528;-76
2024/03/18 03:07:56;;;;;;;25.60;20.30;;;10.30;98.60;;;;;;4999340;28;20038;-75
2024/03/18 03:10:22;;;;;;;23.58;17.83;;;10.30;98.60;;;;;;5006150;28;20428;-75
2024/03/18 03:12:48;;;;;;;25.67;18.98;;;10.30;98.70;;;;;;4996767;28;20096;-78
2024/03/18 03:15:14;;;;;;;24.95;19.60;;;10.40;98.70;;;;;;5001546;28;20041;-74
2024/03/18 03:17:40;;;;;;;24.48;19.85;;;10.40;98.70;;;;;;5000531;28;20042;-74
2024/03/18 03:20:08;;;;;;;27.15;20.30;;;10.40;98.70;;;;;;4997877;28;20033;-76
2024/03/18 03:22:35;;;;;;;27.83;20.58;;;10.40;98.70;;;;;;4992924;28;20651;-74
2024/03/18 03:25:01;;;;;;;25.70;20.45;;;10.40;98.70;;;;;;5001438;28;20065;-76
2024/03/18 03:27:27;;;;;;;24.77;19.88;;;10.40;98.70;;;;;;5000855;28;20077;-73
2024/03/18 03:29:53;;;;;;;28.75;21.20;;;10.40;98.70;;;;;;4994460;28;20038;-74
2024/03/18 03:32:19;;;;;;;27.83;22.17;;;10.40;98.80;;;;;;4996811;28;20108;-77
2024/03/18 03:34:45;;;;;;;27.25;20.63;;;10.40;98.80;;;;;;4998632;28;20372;-73
2024/03/18 03:37:10;;;;;;;23.40;19.52;;;10.40;98.70;;;;;;4999834;28;20046;-74
2024/03/18 03:39:36;;;;;;;29.60;19.73;;;10.40;98.80;;;;;;5001671;28;20112;-75
2024/03/18 03:42:05;;;;;;;24.88;19.08;;;10.40;98.80;;;;;;4996913;28;20560;-77
2024/03/18 03:44:31;;;;;;;27.77;18.58;;;10.40;98.80;;;;;;4997385;28;20148;-72
2024/03/18 03:46:57;;;;;;;27.40;18.67;;;10.40;98.80;;;;;;4996308;28;20482;-73
2024/03/18 03:49:25;;;;;;;21.75;17.80;;;10.40;98.70;;;;;;4996012;28;20049;-74
2024/03/18 03:51:51;;;;;;;25.80;17.67;;;10.40;98.80;;;;;;4996330;28;20038;-73
2024/03/18 03:54:16;;;;;;;23.13;17.17;;;10.40;98.70;;;;;;4998991;28;20157;-77
2024/03/18 03:56:42;;;;;;;29.52;18.50;;;10.40;98.70;;;;;;5003044;28;20050;-75
2024/03/18 03:59:07;;;;;;;25.38;19.35;;;10.40;98.80;;;;;;4996969;28;20030;-75
2024/03/18 04:01:33;;;;;;;23.38;17.33;;;10.40;98.80;;;;;;4997242;28;20038;-72
2024/03/18 04:03:59;;;;;;;28.23;19.02;;;10.40;98.80;;;;;;4996263;28;20096;-76
2024/03/18 04:06:24;;;;;;;24.33;17.73;;;10.40;98.80;;;;;;4994214;28;20042;-76
2024/03/18 04:08:50;;;;;;;31.60;18.83;;;10.40;98.90;;;;;;4996393;28;20096;-75
2024/03/18 04:11:17;;;;;;;28.40;18.33;;;10.50;98.90;;;;;;4999235;28;20393;-76
2024/03/18 04:13:43;;;;;;;27.05;18.42;;;10.50;98.90;;;;;;4999495;28;20038;-76
2024/03/18 04:16:10;;;;;;;25.15;17.27;;;10.50;98.80;;;;;;4996309;28;20056;-71
2024/03/18 04:18:35;;;;;;;24.77;16.70;;;10.50;98.70;;;;;;4997877;28;20072;-73
2024/03/18 04:21:04;;;;;;;23.63;16.83;;;10.50;98.70;;;;;;4999555;28;20053;-74
2024/03/18 04:23:32;;;;;;;24.40;17.65;;;10.50;98.70;;;;;;4997544;28;20033;-75
2024/03/18 04:26:03;;;;;;;25.95;16.50;;;10.40;98.70;;;;;;4996708;28;20034;-75
2024/03/18 04:28:29;;;;;;;27.08;18.20;;;10.40;98.60;;;;;;5000030;28;20107;-75
2024/03/18 04:30:55;;;;;;;27.40;18.05;;;10.40;98.70;;;;;;5001827;28;20060;-72
2024/03/18 04:33:20;;;;;;;25.83;17.70;;;10.40;98.60;;;;;;4998163;28;20108;-73
2024/03/18 04:35:46;;;;;;;26.30;17.40;;;10.30;98.70;;;;;;4993415;28;20033;-77
2024/03/18 04:38:12;;;;;;;23.45;17.98;;;10.30;98.60;;;;;;4993382;28;20041;-73
2024/03/18 04:40:37;;;;;;;31.38;17.90;;;10.30;98.60;;;;;;4990600;28;20041;-72
2024/03/18 04:43:03;;;;;;;23.52;17.60;;;10.20;98.60;;;;;;5007919;28;20050;-74
2024/03/18 04:45:29;;;;;;;27.25;17.83;;;10.20;98.60;;;;;;4998951;28;20525;-73
2024/03/18 04:47:54;;;;;;;22.90;16.70;;;10.10;98.60;;;;;;4996757;28;20042;-77
2024/03/18 04:50:24;;;;;;;23.92;16.75;;;10.10;98.50;;;;;;4998432;28;20065;-75
2024/03/18 04:52:52;;;;;;;24.02;16.58;;;10.10;98.50;;;;;;4992396;28;20141;-75
2024/03/18 04:55:18;;;;;;;24.58;16.05;;;10.10;98.50;;;;;;4991572;28;20026;-75
2024/03/18 04:57:44;;;;;;;24.08;16.73;;;10.10;98.60;;;;;;4997134;28;20045;-73
2024/03/18 05:00:14;;;;;;;21.50;13.60;;;10.10;98.60;;;;;;5000326;28;20026;-76
2024/03/18 05:02:40;;;;;;;25.23;16.02;;;10.10;98.60;;;;;;4995166;28;20041;-76
2024/03/18 05:05:07;;;;;;;26.75;14.23;;;9.90;98.50;;;;;;5000737;28;20643;-73
2024/03/18 05:07:34;;;;;;;22.55;14.02;;;10.00;98.60;;;;;;4996622;28;20030;-75
2024/03/18 05:09:59;;;;;;;19.60;12.60;;;10.00;98.60;;;;;;4996772;28;20494;-77
2024/03/18 05:12:25;;;;;;;19.85;14.48;;;9.90;98.60;;;;;;4997276;28;20064;-74
2024/03/18 05:14:51;;;;;;;21.67;12.90;;;9.90;98.50;;;;;;4996347;28;20037;-77
2024/03/18 05:17:17;;;;;;;20.60;12.88;;;9.90;98.50;;;;;;5003497;28;20050;-73
2024/03/18 05:19:43;;;;;;;25.15;12.23;;;9.80;98.60;;;;;;4999313;28;20702;-75
2024/03/18 05:22:11;;;;;;;25.45;14.05;;;9.90;98.70;;;;;;4999025;28;20050;-73
2024/03/18 05:24:37;;;;;;;19.95;12.55;;;10.00;98.80;;;;;;4999463;28;20025;-74
2024/03/18 05:27:04;;;;;;;22.77;12.40;;;10.00;98.80;;;;;;5001671;28;20046;-73
2024/03/18 05:29:30;;;;;;;21.42;12.70;;;10.10;98.80;;;;;;5002694;28;20044;-75
2024/03/18 05:31:56;;;;;;;24.63;13.57;;;10.10;98.80;;;;;;4997254;28;20034;-76
2024/03/18 05:34:21;;;;;;;25.83;13.80;;;10.10;98.80;;;;;;4997730;28;20066;-75
2024/03/18 05:36:47;;;;;;;29.48;14.25;;;10.20;98.80;;;;;;4997857;28;20486;-74
2024/03/18 05:39:13;;;;;;;27.65;13.60;;;10.20;98.70;;;;;;4996924;28;20144;-72
2024/03/18 05:41:39;;;;;;;26.17;13.32;;;10.20;98.60;;;;;;4994358;28;21045;-75
2024/03/18 05:44:08;;;;;;;28.90;13.85;;;10.20;98.60;;;;;;5002161;28;20534;-75
2024/03/18 05:46:33;;;;;;;28.20;13.73;;;10.10;98.50;;;;;;4996583;28;20401;-74
2024/03/18 05:48:59;;;;;;;26.75;12.45;;;10.10;98.50;;;;;;5000263;28;20462;-75
2024/03/18 05:51:25;;;;;;;29.90;13.02;;;10.10;98.50;;;;;;5005290;28;20046;-74
2024/03/18 05:53:50;;;;;;;26.30;12.80;;;10.10;98.50;;;;;;5003635;28;20038;-74
2024/03/18 05:56:17;;;;;;;25.88;11.35;;;10.10;98.50;;;;;;4995087;28;20029;-73
2024/03/18 05:58:42;;;;;;;20.98;11.70;;;10.00;98.50;;;;;;5002546;28;20036;-75
2024/03/18 06:01:12;;;;;;;23.90;12.38;;;10.00;98.50;;;;;;4996175;28;20046;-73
2024/03/18 06:03:39;;;;;;;28.50;13.07;;;10.10;98.50;;;;;;4995807;28;20077;-76
2024/03/18 06:06:06;;;;;;;20.17;12.02;;;10.10;98.60;;;;;;5000983;28;20042;-76
2024/03/18 06:08:32;;;;;;;17.38;11.07;;;10.10;98.50;;;;;;4999600;28;20050;-73
2024/03/18 06:10:58;;;;;;;25.13;12.18;;;10.10;98.50;;;;;;4998795;28;20052;-76
2024/03/18 06:13:25;;;;;;;18.73;11.98;;;10.10;98.50;;;;;;4999853;28;20097;-75
2024/03/18 06:15:51;;;;;;;22.63;12.23;;;10.10;98.50;;;;;;4993939;28;20108;-75
2024/03/18 06:18:17;;;;;;;23.40;11.57;;;10.10;98.40;;;;;;5002303;28;20033;-75
2024/03/18 06:20:43;;;;;;;19.05;11.32;;;10.10;98.40;;;;;;4988668;28;20034;-76
2024/03/18 06:23:10;;;;;;;19.67;11.90;;;10.10;98.40;;;;;;4998025;28;20037;-76
2024/03/18 06:28:24;;;;;;;20.83;12.00;;;10.10;98.30;;;;;;4995050;28;20041;-79
2024/03/18 06:30:50;;;;;;;20.85;12.32;;;10.10;98.30;;;;;;4998035;28;20298;-74
2024/03/18 06:33:16;;;;;;;26.65;12.60;;;10.10;98.30;;;;;;4997504;28;20025;-73
2024/03/18 06:35:55;;;;;;;24.20;12.63;;;10.00;98.20;;;;;;4988093;28;20022;-74
2024/03/18 06:38:25;;;;;;;21.10;11.68;;;10.00;98.30;;;;;;5007871;28;20018;-76
2024/03/18 06:40:54;;;;;;;22.30;11.57;;;10.10;98.30;;;;;;4990998;28;20050;-77
2024/03/18 06:43:20;;;;;;;27.42;12.63;;;10.10;98.40;;;;;;4995860;28;20296;-76
2024/03/18 06:49:21;;;;;;;23.95;12.18;;;10.40;98.30;;;;;;4954765;28;20030;-77
2024/03/18 06:51:48;;;;;;;27.50;14.18;;;10.60;98.20;;;;;;4997767;28;20505;-74
2024/03/18 06:54:14;;;;;;;25.70;12.60;;;11.00;98.00;;;;;;4996379;28;20022;-74
2024/03/18 06:56:40;;;;;;;21.30;11.45;;;11.30;97.30;;;;;;4994776;28;20038;-78
2024/03/18 06:59:09;;;;;;;25.92;11.35;;;11.50;96.20;;;;;;4997213;28;20509;-76
2024/03/18 07:01:35;;;;;;;20.80;10.38;;;11.50;95.70;;;;;;4994946;28;20473;-74
2024/03/18 07:04:00;;;;;;;23.55;11.25;;;11.50;95.20;;;;;;4996739;28;20105;-78
2024/03/18 07:06:26;;;;;;;26.98;13.07;;;11.50;95.40;;;;;;4988385;28;20171;-77
2024/03/18 07:08:52;;;;;;;28.67;11.75;;;11.50;95.40;;;;;;4997129;28;20041;-73
2024/03/18 07:11:17;;;;;;;22.23;12.70;;;11.50;95.50;;;;;;4996767;28;20145;-73
2024/03/18 07:13:43;;;;;;;29.75;12.68;;;11.60;95.50;;;;;;4999183;28;20050;-76
2024/03/18 07:16:10;;;;;;;26.58;13.20;;;11.60;95.40;;;;;;4991430;28;20049;-75
2024/03/18 07:18:38;;;;;;;30.20;15.15;;;11.60;95.40;;;;;;4994857;28;20072;-74
2024/03/18 07:21:04;;;;;;;24.63;12.60;;;11.60;95.40;;;;;;4999480;28;20641;-74
2024/03/18 07:23:30;;;;;;;27.80;13.13;;;11.60;95.00;;;;;;4997749;28;20026;-76
2024/03/18 07:25:56;;;;;;;26.83;13.02;;;11.50;94.80;;;;;;4999176;28;20679;-73
2024/03/18 07:28:22;;;;;;;29.40;13.95;;;11.40;94.80;;;;;;4996493;28;20049;-74
2024/03/18 07:31:08;;;;;;;25.88;13.18;;;11.20;94.70;;;;;;4994392;28;20066;-77
2024/03/18 07:33:34;;;;;;;28.90;14.13;;;11.20;95.00;;;;;;4996338;28;20034;-75
2024/03/18 07:35:59;;;;;;;27.73;14.38;;;11.20;95.20;;;;;;4997703;28;20053;-73
2024/03/18 07:38:25;;;;;;;31.40;14.85;;;11.20;95.40;;;;;;4997747;28;20034;-75
2024/03/18 07:40:53;;;;;;;30.63;15.27;;;11.20;95.40;;;;;;4993374;28;20042;-78
2024/03/18 07:43:20;;;;;;;33.17;16.35;;;11.30;95.50;;;;;;4994641;28;20049;-77
2024/03/18 07:45:46;;;;;;;32.30;15.68;;;11.40;95.50;;;;;;4990748;28;20057;-76
2024/03/18 07:48:12;;;;;;;31.70;15.98;;;11.40;95.50;;;;;;5005385;28;20084;-77
2024/03/18 07:50:37;;;;;;;30.83;17.25;;;11.50;95.50;;;;;;4996810;28;20045;-73
2024/03/18 07:53:04;;;;;;;27.88;16.77;;;11.60;95.40;;;;;;4995427;28;20147;-73
2024/03/18 07:55:30;;;;;;;33.63;17.48;;;11.70;95.30;;;;;;4999096;28;20037;-79
2024/03/18 07:57:56;;;;;;;30.30;17.25;;;11.80;95.10;;;;;;4995695;28;20030;-74
2024/03/18 08:00:23;;;;;;;28.27;16.90;;;11.90;95.10;;;;;;4992364;28;20092;-74
2024/03/18 08:02:49;;;;;;;32.75;17.05;;;12.00;94.80;;;;;;4996411;28;20042;-74
2024/03/18 08:05:15;;;;;;;33.10;17.77;;;12.10;94.40;;;;;;4998344;28;20060;-77
2024/03/18 08:07:44;;;;;;;33.95;17.73;;;12.10;93.60;;;;;;4993541;28;20042;-75
2024/03/18 08:10:10;;;;;;;30.95;17.38;;;12.20;93.50;;;;;;4996685;28;20094;-78
2024/03/18 08:12:35;;;;;;;34.88;17.58;;;12.30;93.40;;;;;;4992070;28;20046;-76
2024/03/18 08:15:01;;;;;;;30.88;16.67;;;12.50;93.50;;;;;;4995086;28;20069;-77
2024/03/18 08:17:27;;;;;;;29.60;17.08;;;12.60;92.60;;;;;;4995382;28;20103;-76
2024/03/18 08:19:53;;;;;;;29.98;17.00;;;12.60;92.10;;;;;;5000203;28;20038;-76
2024/03/18 08:22:21;;;;;;;29.67;17.00;;;12.80;91.60;;;;;;4991590;28;20033;-80
2024/03/18 08:24:47;;;;;;;27.15;16.15;;;12.80;91.50;;;;;;4994654;28;20454;-74
2024/03/18 08:27:14;;;;;;;29.85;17.42;;;13.10;91.40;;;;;;4995827;28;20045;-75
2024/03/18 08:29:40;;;;;;;32.67;17.10;;;13.10;90.70;;;;;;4996312;28;20026;-78
2024/03/18 08:32:07;;;;;;;30.20;17.38;;;13.30;90.70;;;;;;4994721;28;20050;-75
2024/03/18 08:34:33;;;;;;;32.97;17.20;;;13.40;90.10;;;;;;4993913;28;20306;-78
2024/03/18 08:36:59;;;;;;;33.63;18.30;;;13.50;89.40;;;;;;4992978;28;21599;-77
2024/03/18 08:39:25;;;;;;;29.52;15.48;;;13.70;89.30;;;;;;4998088;28;20112;-75
2024/03/18 08:41:51;;;;;;;28.15;16.52;;;13.60;88.00;;;;;;4996997;28;20204;-75
2024/03/18 08:44:16;;;;;;;32.97;17.80;;;13.80;88.70;;;;;;4997533;28;20050;-77
2024/03/18 08:46:44;;;;;;;28.80;17.92;;;13.90;88.70;;;;;;4998285;28;20062;-74
2024/03/18 08:49:13;;;;;;;23.55;16.98;;;14.10;88.40;;;;;;4998427;28;20042;-78
2024/03/18 08:51:40;;;;;;;28.98;17.27;;;14.30;87.30;;;;;;4998814;28;20045;-78
2024/03/18 08:54:07;;;;;;;31.10;16.67;;;14.50;87.00;;;;;;5007116;28;20037;-77
2024/03/18 08:56:32;;;;;;;28.70;16.30;;;14.60;86.60;;;;;;5001289;28;20057;-76
2024/03/18 08:58:58;;;;;;;24.98;14.95;;;14.70;85.70;;;;;;5005255;28;20100;-79
2024/03/18 09:01:24;;;;;;;29.17;15.18;;;14.90;85.60;;;;;;5003328;28;20630;-76
2024/03/18 09:03:50;;;;;;;29.35;13.90;;;15.00;84.80;;;;;;5006225;28;20137;-78
2024/03/18 09:06:16;;;;;;;25.25;13.23;;;14.80;83.70;;;;;;5004710;28;20042;-76
2024/03/18 09:08:45;;;;;;;24.70;12.93;;;14.60;84.40;;;;;;5004247;28;20030;-76
2024/03/18 09:11:12;;;;;;;27.15;13.98;;;14.50;85.20;;;;;;5005395;28;20073;-78
2024/03/18 09:13:39;;;;;;;28.23;15.60;;;14.50;85.80;;;;;;5005826;28;20471;-75
2024/03/18 09:16:05;;;;;;;27.75;14.82;;;14.60;85.20;;;;;;5005173;28;20053;-75
2024/03/18 09:18:31;;;;;;;30.63;14.95;;;14.50;85.10;;;;;;5004462;28;20021;-77
2024/03/18 09:20:57;;;;;;;28.75;14.95;;;14.60;85.60;;;;;;4996199;28;20049;-76
2024/03/18 09:23:23;;;;;;;27.83;13.68;;;14.60;85.10;;;;;;5002350;28;20033;-75
2024/03/18 09:25:50;;;;;;;22.23;12.32;;;14.50;85.80;;;;;;5000275;28;23507;-77
2024/03/18 09:28:16;;;;;;;24.10;12.52;;;14.60;85.30;;;;;;5002338;28;20030;-76
2024/03/18 09:30:43;;;;;;;25.95;12.35;;;14.70;84.40;;;;;;4999737;28;20532;-76
2024/03/18 09:33:08;;;;;;;28.02;13.07;;;14.90;85.20;;;;;;4999404;28;20022;-76
2024/03/18 09:35:34;;;;;;;29.27;13.48;;;15.10;84.40;;;;;;4999745;28;20084;-76
2024/03/18 09:38:00;;;;;;;32.88;15.98;;;15.40;84.10;;;;;;4999774;28;20037;-75
2024/03/18 09:40:29;;;;;;;28.15;15.20;;;15.70;83.00;;;;;;4997417;28;20050;-76
2024/03/18 09:42:55;;;;;;;29.88;14.10;;;15.80;82.50;;;;;;5001501;28;20058;-75
2024/03/18 09:45:22;;;;;;;25.10;13.15;;;15.70;81.80;;;;;;4998678;28;20048;-76
2024/03/18 09:47:48;;;;;;;27.08;13.95;;;15.60;82.20;;;;;;5001340;28;20033;-76
2024/03/18 09:50:16;;;;;;;26.50;14.57;;;15.70;82.40;;;;;;4998280;28;20498;-76
2024/03/18 09:52:43;;;;;;;22.92;13.38;;;15.60;82.30;;;;;;5001043;28;20048;-82
2024/03/18 09:55:22;;;;;;;26.52;13.57;;;15.70;82.50;;;;;;5002066;28;20026;-75
2024/03/18 09:57:52;;;;;;;25.50;13.23;;;16.10;82.90;;;;;;5005046;28;20121;-75
2024/03/18 10:00:19;;;;;;;20.75;10.60;;;16.10;81.20;;;;;;5000427;28;20026;-75
2024/03/18 10:02:46;;;;;;;25.00;11.13;;;15.90;80.60;;;;;;4998298;28;20681;-76
2024/03/18 10:05:13;;;;;;;22.98;11.70;;;15.70;81.60;;;;;;5001220;28;20030;-74
2024/03/18 10:07:45;;;;;;;23.65;13.27;;;15.60;81.70;;;;;;4995160;28;20087;-75
2024/03/18 10:10:20;;;;;;;22.35;12.57;;;15.70;82.40;;;;;;4998527;28;20036;-77
2024/03/18 10:12:49;;;;;;;20.80;11.40;;;16.10;82.40;;;;;;5001099;28;20038;-75
2024/03/18 10:15:15;;;;;;;24.05;10.73;;;16.50;81.30;;;;;;5003381;28;20022;-74
2024/03/18 10:17:41;;;;;;;22.45;11.65;;;16.70;79.00;;;;;;5002510;28;20091;-75
2024/03/18 10:20:20;;;;;;;20.25;13.55;;;16.60;79.20;;;;;;4996962;28;20022;-76
2024/03/18 10:22:54;;;;;;;25.38;17.67;;;16.60;79.10;;;;;;4999914;28;20045;-74
2024/03/18 10:25:21;;;;;;;24.15;17.30;;;16.70;79.00;;;;;;4994553;28;20445;-75
2024/03/18 10:27:53;;;;;;;27.15;19.77;;;16.80;79.00;;;;;;4999531;28;20040;-74
2024/03/18 10:30:19;;;;;;;19.60;14.00;;;16.60;78.70;;;;;;4997653;28;20034;-77
2024/03/18 10:32:46;;;;;;;23.42;15.90;;;16.40;78.60;;;;;;5000381;28;20034;-77
2024/03/18 10:35:31;;;;;;;20.08;15.30;;;16.10;79.40;;;;;;4998932;28;20045;-75
2024/03/18 10:38:05;;;;;;;21.83;14.30;;;15.90;81.10;;;;;;5001267;28;20049;-76
2024/03/18 10:40:40;;;;;;;17.30;12.32;;;15.80;81.10;;;;;;4994770;28;20029;-75
2024/03/18 10:43:13;;;;;;;18.55;11.15;;;15.80;81.60;;;;;;5001872;28;20054;-75
2024/03/18 10:45:47;;;;;;;17.63;10.02;;;15.70;81.80;;;;;;4996753;28;20033;-76
2024/03/18 10:48:17;;;;;;;16.40;9.52;;;15.80;82.20;;;;;;5001006;28;20030;-75
2024/03/18 10:50:45;;;;;;;17.27;9.15;;;15.60;82.60;;;;;;5004148;28;20036;-80
2024/03/18 10:53:18;;;;;;;14.75;8.65;;;15.70;83.10;;;;;;5004784;28;20025;-77
2024/03/18 10:55:55;;;;;;;15.17;8.77;;;15.50;83.90;;;;;;4998228;28;20029;-75
2024/03/18 10:58:29;;;;;;;12.88;7.70;;;15.60;83.70;;;;;;5001711;28;20293;-76
2024/03/18 11:00:55;;;;;;;15.88;7.63;;;15.70;83.10;;;;;;5000357;28;20126;-74
2024/03/18 11:03:23;;;;;;;11.93;7.75;;;16.00;83.10;;;;;;4998899;28;20029;-76
2024/03/18 11:05:54;;;;;;;12.13;7.65;;;16.30;82.10;;;;;;4997435;28;20038;-75
2024/03/18 11:08:21;;;;;;;12.32;7.85;;;16.40;80.40;;;;;;4998817;28;20551;-77
2024/03/18 11:10:48;;;;;;;12.63;7.95;;;16.50;80.00;;;;;;4999287;28;20037;-77
2024/03/18 11:13:19;;;;;;;11.52;7.90;;;16.40;79.30;;;;;;5000659;28;20030;-77
2024/03/18 11:15:47;;;;;;;11.10;7.55;;;16.20;79.80;;;;;;4993261;28;20378;-76
2024/03/18 11:18:18;;;;;;;13.00;8.27;;;16.10;80.10;;;;;;4996352;28;20555;-74
2024/03/18 11:20:46;;;;;;;10.13;7.53;;;16.00;80.70;;;;;;4994344;28;20036;-74
2024/03/18 11:23:20;;;;;;;14.80;9.00;;;16.00;81.20;;;;;;4997402;28;20076;-75
2024/03/18 11:25:52;;;;;;;14.95;9.02;;;16.00;80.50;;;;;;5012650;28;20038;-73
2024/03/18 11:28:18;;;;;;;16.50;10.52;;;16.20;80.90;;;;;;5000076;28;20061;-74
2024/03/18 11:30:47;;;;;;;12.95;8.50;;;16.20;80.10;;;;;;4994837;28;20052;-75
2024/03/18 11:33:14;;;;;;;15.43;9.55;;;16.40;79.10;;;;;;5000535;28;20117;-75
2024/03/18 11:35:43;;;;;;;15.93;9.07;;;16.30;79.20;;;;;;4988819;28;20422;-76
2024/03/18 11:38:13;;;;;;;14.48;10.02;;;16.20;79.60;;;;;;5002171;28;20045;-74
2024/03/18 11:40:40;;;;;;;14.07;8.73;;;16.30;79.70;;;;;;5001928;28;20033;-76
2024/03/18 11:43:09;;;;;;;12.57;8.07;;;16.30;80.30;;;;;;5001401;28;20060;-75
2024/03/18 11:45:38;;;;;;;14.98;7.80;;;16.40;79.60;;;;;;4994901;28;20037;-78
2024/03/18 11:48:10;;;;;;;14.15;8.10;;;16.40;79.30;;;;;;4998514;28;20480;-74
2024/03/18 11:50:41;;;;;;;12.30;7.03;;;16.40;79.10;;;;;;4996201;28;20527;-76
2024/03/18 11:53:09;;;;;;;12.13;7.18;;;16.60;79.10;;;;;;4996499;28;20497;-76
2024/03/18 11:55:40;;;;;;;12.60;6.90;;;16.70;77.50;;;;;;5010982;28;20769;-75
2024/03/18 11:58:07;;;;;;;12.52;7.10;;;16.70;78.50;;;;;;4995110;28;20061;-74
2024/03/18 12:00:35;;;;;;;14.93;8.27;;;16.60;78.20;;;;;;4997365;28;20075;-78
2024/03/18 12:03:11;;;;;;;12.63;8.05;;;16.60;78.20;;;;;;5001934;28;20100;-76
2024/03/18 12:05:43;;;;;;;15.18;8.18;;;16.50;77.80;;;;;;4998005;28;20210;-74
2024/03/18 12:08:22;;;;;;;14.73;7.93;;;16.60;78.20;;;;;;5014194;28;20030;-74
2024/03/18 12:10:53;;;;;;;12.90;7.57;;;16.50;78.90;;;;;;4999538;28;20087;-77
2024/03/18 12:13:25;;;;;;;13.48;7.45;;;16.30;79.30;;;;;;4999041;28;20084;-75
2024/03/18 12:15:51;;;;;;;12.05;7.82;;;16.20;80.00;;;;;;4994911;28;20078;-74
2024/03/18 12:18:17;;;;;;;11.63;7.15;;;16.20;79.80;;;;;;5000140;28;20053;-76
2024/03/18 12:20:43;;;;;;;10.52;4.88;;;16.10;79.60;;;;;;4992584;28;20117;-75
2024/03/18 12:28:32;;;;;;;10.10;4.82;;;16.10;79.50;;;;;;5003780;28;20033;-77
2024/03/18 12:28:50;;;;;;;8.13;4.50;;;16.60;78.20;;;;;;5000930;28;20125;-75
2024/03/18 12:31:19;;;;;;;9.95;3.97;;;17.00;77.70;;;;;;4989652;28;20081;-79
2024/03/18 12:33:46;;;;;;;8.20;3.47;;;16.70;76.80;;;;;;5011783;28;20109;-74
2024/03/18 12:36:13;;;;;;;9.50;2.83;;;16.60;77.70;;;;;;5004387;28;20069;-74
2024/03/18 12:38:40;;;;;;;7.95;3.33;;;16.30;76.90;;;;;;5009022;28;20029;-73
2024/03/18 12:41:09;;;;;;;8.60;3.28;;;16.00;77.80;;;;;;5002471;28;20065;-73